Time;durP1;ratioP1;P1;durP2;ratioP2;P2;SDS_P1;SDS_P2;PMS_P1;PMS_P2;Temp;Humidity;BMP_temperature;BMP_pressure;BME280_temperature;BME280_humidity;BME280_pressure;Samples;Min_cycle;Max_cycle;Signal;HPM_P1;HPM_P2
2023/09/18 00:00:18;;;;;;;;;;;19.90;83.90;;;;;;5021844;28;20369;-74
2023/09/18 00:02:51;;;;;;;;;;;19.90;84.00;;;;;;5024289;28;19926;-74
2023/09/18 00:05:26;;;;;;;;;;;19.80;84.00;;;;;;5024847;28;19932;-74
2023/09/18 00:07:59;;;;;;;;;;;19.90;84.10;;;;;;5026376;28;20252;-76
2023/09/18 00:10:32;;;;;;;;;;;19.80;84.20;;;;;;5028374;28;19928;-76
2023/09/18 00:13:05;;;;;;;;;;;19.80;84.40;;;;;;5024936;28;19929;-73
2023/09/18 00:15:40;;;;;;;;;;;19.80;84.30;;;;;;5023499;28;19929;-73
2023/09/18 00:18:14;;;;;;;;;;;19.70;84.30;;;;;;5026691;28;19933;-74
2023/09/18 00:20:49;;;;;;;;;;;19.70;84.40;;;;;;5027069;28;20299;-74
2023/09/18 00:23:22;;;;;;;;;;;19.80;84.20;;;;;;5026976;28;19933;-74
2023/09/18 00:25:55;;;;;;;;;;;19.80;84.10;;;;;;5027393;28;20025;-75
2023/09/18 00:28:28;;;;;;;;;;;19.70;84.20;;;;;;5026224;28;19947;-74
2023/09/18 00:31:01;;;;;;;;;;;19.70;84.20;;;;;;5027880;28;19932;-73
2023/09/18 00:33:34;;;;;;;;;;;19.70;84.10;;;;;;5014282;28;19933;-74
2023/09/18 00:36:09;;;;;;;;;;;19.70;84.10;;;;;;5025780;28;19933;-72
2023/09/18 00:38:42;;;;;;;;;;;19.70;84.20;;;;;;5027100;28;19933;-73
2023/09/18 00:41:15;;;;;;;;;;;19.70;84.20;;;;;;5026816;28;20027;-73
2023/09/18 00:43:49;;;;;;;;;;;19.70;84.00;;;;;;5030643;28;19960;-68
2023/09/18 00:46:22;;;;;;;;;;;19.70;84.00;;;;;;5024958;28;19932;-67
2023/09/18 00:48:55;;;;;;;;;;;19.60;84.20;;;;;;5026695;28;19925;-68
2023/09/18 00:51:30;;;;;;;;;;;19.60;84.30;;;;;;5027224;28;19931;-68
2023/09/18 00:54:03;;;;;;;;;;;19.60;84.30;;;;;;5028103;28;19933;-68
2023/09/18 00:56:38;;;;;;;;;;;19.70;84.10;;;;;;5026827;28;20292;-67
2023/09/18 00:59:13;;;;;;;;;;;19.60;84.30;;;;;;5026186;28;20319;-67
2023/09/18 01:01:46;;;;;;;;;;;19.70;84.20;;;;;;5023719;28;20020;-67
2023/09/18 01:04:20;;;;;;;;;;;19.60;84.20;;;;;;5012254;28;19933;-67
2023/09/18 01:06:56;;;;;;;;;;;19.60;84.20;;;;;;5018221;28;19933;-67
2023/09/18 01:09:29;;;;;;;;;;;19.60;84.20;;;;;;5021193;28;20461;-68
2023/09/18 01:12:06;;;;;;;;;;;19.60;84.20;;;;;;5023689;28;20380;-68
2023/09/18 01:14:43;;;;;;;;;;;19.60;84.20;;;;;;5025848;28;19929;-67
2023/09/18 01:17:17;;;;;;;;;;;19.60;84.30;;;;;;5024017;28;19944;-68
2023/09/18 01:19:51;;;;;;;;;;;19.60;84.40;;;;;;5023816;28;20392;-69
2023/09/18 01:22:30;;;;;;;;;;;19.60;84.40;;;;;;5023497;28;19971;-68
2023/09/18 01:25:06;;;;;;;;;;;19.60;84.30;;;;;;5022960;28;19929;-68
2023/09/18 01:27:39;;;;;;;;;;;19.60;84.30;;;;;;5025284;28;19925;-69
2023/09/18 01:30:14;;;;;;;;;;;19.60;84.40;;;;;;5025560;28;20456;-68
2023/09/18 01:32:48;;;;;;;;;;;19.70;84.20;;;;;;5024094;28;20300;-69
2023/09/18 01:35:22;;;;;;;;;;;19.70;84.20;;;;;;5024595;28;19926;-68
2023/09/18 01:37:56;;;;;;;;;;;19.60;84.30;;;;;;5015866;28;19932;-68
2023/09/18 01:40:32;;;;;;;;;;;19.60;84.30;;;;;;5024480;28;19929;-69
2023/09/18 01:43:06;;;;;;;;;;;19.60;84.20;;;;;;5024056;28;19941;-68
2023/09/18 01:45:40;;;;;;;;;;;19.50;84.40;;;;;;5025567;28;19979;-68
2023/09/18 01:48:13;;;;;;;;;;;19.50;84.50;;;;;;5022101;28;19929;-68
2023/09/18 01:50:46;;;;;;;;;;;19.60;84.70;;;;;;5024736;28;19933;-69
2023/09/18 01:53:20;;;;;;;;;;;19.60;84.40;;;;;;5025474;28;20334;-68
2023/09/18 01:55:55;;;;;;;;;;;19.60;84.30;;;;;;5021622;28;19965;-69
2023/09/18 01:58:28;;;;;;;;;;;19.70;84.30;;;;;;5025979;28;19925;-69
2023/09/18 02:01:01;;;;;;;;;;;19.70;84.20;;;;;;5024861;28;19929;-69
2023/09/18 02:03:34;;;;;;;;;;;19.80;83.80;;;;;;5023763;28;19955;-69
2023/09/18 02:06:08;;;;;;;;;;;19.90;83.70;;;;;;5010907;28;19964;-69
2023/09/18 02:08:41;;;;;;;;;;;19.90;83.50;;;;;;5020215;28;19929;-69
2023/09/18 02:11:16;;;;;;;;;;;19.90;83.50;;;;;;5023099;28;20000;-70
2023/09/18 02:13:49;;;;;;;;;;;19.90;83.70;;;;;;5022869;28;19983;-69
2023/09/18 02:16:24;;;;;;;;;;;19.80;83.80;;;;;;5021292;28;20045;-69
2023/09/18 02:18:50;;;;;;;;;;;19.80;84.10;;;;;;5022526;28;19935;-70
2023/09/18 02:21:23;;;;;;;;;;;19.70;84.20;;;;;;5022883;28;19972;-68
2023/09/18 02:23:56;;;;;;;;;;;19.60;84.10;;;;;;5023559;28;19930;-69
2023/09/18 02:26:31;;;;;;;;;;;19.60;84.20;;;;;;5007636;28;19936;-69
2023/09/18 02:29:06;;;;;;;;;;;19.60;84.30;;;;;;5023694;28;20024;-69
2023/09/18 02:31:40;;;;;;;;;;;19.60;84.10;;;;;;5023338;28;20028;-69
2023/09/18 02:34:13;;;;;;;;;;;19.60;84.20;;;;;;5019730;28;20034;-69
2023/09/18 02:36:47;;;;;;;;;;;19.60;84.40;;;;;;5022849;28;19925;-69
2023/09/18 02:39:21;;;;;;;;;;;19.60;84.40;;;;;;5023268;28;19932;-68
2023/09/18 02:41:56;;;;;;;;;;;19.60;84.50;;;;;;5012832;28;19975;-68
2023/09/18 02:44:29;;;;;;;;;;;19.60;84.60;;;;;;5018468;28;20399;-69
2023/09/18 02:47:02;;;;;;;;;;;19.60;84.70;;;;;;5016443;28;19972;-69
2023/09/18 02:49:35;;;;;;;;;;;19.60;84.60;;;;;;5023761;28;20019;-69
2023/09/18 02:52:09;;;;;;;;;;;19.60;84.60;;;;;;5022670;28;20450;-69
2023/09/18 02:54:42;;;;;;;;;;;19.60;84.70;;;;;;5010636;28;19929;-69
2023/09/18 02:57:17;;;;;;;;;;;19.60;84.80;;;;;;5019710;28;20103;-69
2023/09/18 02:59:50;;;;;;;;;;;19.60;84.60;;;;;;5022586;28;19930;-69
2023/09/18 03:02:23;;;;;;;;;;;19.70;84.60;;;;;;5007247;28;19983;-68
2023/09/18 03:04:57;;;;;;;;;;;19.70;84.50;;;;;;5011844;28;19929;-68
2023/09/18 03:07:30;;;;;;;;;;;19.70;85.20;;;;;;5022705;28;19929;-68
2023/09/18 03:10:04;;;;;;;;;;;19.60;85.40;;;;;;5022385;28;19935;-67
2023/09/18 03:12:39;;;;;;;;;;;19.60;86.00;;;;;;5026681;28;19929;-68
2023/09/18 03:15:12;;;;;;;;;;;19.60;86.20;;;;;;5021590;28;19929;-68
2023/09/18 03:17:45;;;;;;;;;;;19.60;86.60;;;;;;5025796;28;19936;-68
2023/09/18 03:20:18;;;;;;;;;;;19.60;86.80;;;;;;5021522;28;19999;-69
2023/09/18 03:22:45;;;;;;;;;;;19.60;86.70;;;;;;5026177;28;19929;-68
2023/09/18 03:25:18;;;;;;;;;;;19.60;86.70;;;;;;5022607;28;19957;-69
2023/09/18 03:27:54;;;;;;;;;;;19.60;87.00;;;;;;5010831;28;19929;-68
2023/09/18 03:30:23;;;;;;;;;;;19.60;87.30;;;;;;5026436;28;19932;-69
2023/09/18 03:32:57;;;;;;;;;;;19.60;87.40;;;;;;5022247;28;19930;-70
2023/09/18 03:35:25;;;;;;;;;;;19.60;87.50;;;;;;5009944;28;20409;-68
2023/09/18 03:37:58;;;;;;;;;;;19.60;87.40;;;;;;5021620;28;20288;-68
2023/09/18 03:40:33;;;;;;;;;;;19.60;87.80;;;;;;5021064;28;20278;-68
2023/09/18 03:43:08;;;;;;;;;;;19.60;87.80;;;;;;5024963;28;19933;-67
2023/09/18 03:45:42;;;;;;;;;;;19.60;88.10;;;;;;5021231;28;20443;-67
2023/09/18 03:48:14;;;;;;;;;;;19.60;88.00;;;;;;5009914;28;20024;-69
2023/09/18 03:50:48;;;;;;;;;;;19.60;87.80;;;;;;5024432;28;19925;-68
2023/09/18 03:53:21;;;;;;;;;;;19.60;87.90;;;;;;5008728;28;19929;-68
2023/09/18 03:55:54;;;;;;;;;;;19.60;88.10;;;;;;5022191;28;19933;-67
2023/09/18 03:58:29;;;;;;;;;;;19.60;87.90;;;;;;5021561;28;19933;-67
2023/09/18 04:01:02;;;;;;;;;;;19.60;87.90;;;;;;5020914;28;19925;-68
2023/09/18 04:03:35;;;;;;;;;;;19.60;87.90;;;;;;5022179;28;19945;-67
2023/09/18 04:06:08;;;;;;;;;;;19.60;88.10;;;;;;5022650;28;19932;-68
2023/09/18 04:08:41;;;;;;;;;;;19.60;88.10;;;;;;5005968;28;20024;-71
2023/09/18 04:11:15;;;;;;;;;;;19.60;88.20;;;;;;5021740;28;19933;-67
2023/09/18 04:13:49;;;;;;;;;;;19.50;88.40;;;;;;5027012;28;19960;-65
2023/09/18 04:16:22;;;;;;;;;;;19.50;88.30;;;;;;5022576;28;19975;-65
2023/09/18 04:18:55;;;;;;;;;;;19.50;88.50;;;;;;5019755;28;19952;-64
2023/09/18 04:21:29;;;;;;;;;;;19.50;88.40;;;;;;5022107;28;19979;-65
2023/09/18 04:24:02;;;;;;;;;;;19.60;88.30;;;;;;5022978;28;19925;-65
2023/09/18 04:26:37;;;;;;;;;;;19.50;88.30;;;;;;5022597;28;19930;-66
2023/09/18 04:29:12;;;;;;;;;;;19.60;88.20;;;;;;5005315;28;19933;-66
2023/09/18 04:31:46;;;;;;;;;;;19.60;88.30;;;;;;5020802;28;19932;-66
2023/09/18 04:34:19;;;;;;;;;;;19.50;88.50;;;;;;5023375;28;19972;-65
2023/09/18 04:36:53;;;;;;;;;;;19.50;88.60;;;;;;5009393;28;19935;-64
2023/09/18 04:39:29;;;;;;;;;;;19.50;88.80;;;;;;5021138;28;19932;-66
2023/09/18 04:42:04;;;;;;;;;;;19.50;88.80;;;;;;5022506;28;19968;-65
2023/09/18 04:44:39;;;;;;;;;;;19.50;88.80;;;;;;5009860;28;19975;-65
2023/09/18 04:47:12;;;;;;;;;;;19.50;88.80;;;;;;5021608;28;19933;-64
2023/09/18 04:49:47;;;;;;;;;;;19.50;88.40;;;;;;5022114;28;19975;-65
2023/09/18 04:52:14;;;;;;;;;;;19.60;88.20;;;;;;5026089;28;19925;-66
2023/09/18 04:54:48;;;;;;;;;;;19.50;88.40;;;;;;5017717;28;19925;-65
2023/09/18 04:57:20;;;;;;;;;;;19.60;88.40;;;;;;5020623;28;19925;-64
2023/09/18 04:59:55;;;;;;;;;;;19.60;88.70;;;;;;5023935;28;19925;-67
2023/09/18 05:02:30;;;;;;;;;;;19.60;88.70;;;;;;5020985;28;19935;-65
2023/09/18 05:05:04;;;;;;;;;;;19.50;88.70;;;;;;5021947;28;19929;-67
2023/09/18 05:07:37;;;;;;;;;;;19.50;88.90;;;;;;5021900;28;20020;-65
2023/09/18 05:10:10;;;;;;;;;;;19.60;88.80;;;;;;5025674;28;19972;-66
2023/09/18 05:12:43;;;;;;;;;;;19.60;88.70;;;;;;5023906;28;19929;-65
2023/09/18 05:15:18;;;;;;;;;;;19.60;88.80;;;;;;5025446;28;19976;-66
2023/09/18 05:17:55;;;;;;;;;;;19.60;88.70;;;;;;5026198;28;19929;-70
2023/09/18 05:20:29;;;;;;;;;;;19.60;88.80;;;;;;5026700;28;19929;-68
2023/09/18 05:23:04;;;;;;;;;;;19.60;88.70;;;;;;5028213;28;20391;-70
2023/09/18 05:25:38;;;;;;;;;;;19.60;88.60;;;;;;5025073;28;19932;-68
2023/09/18 05:28:11;;;;;;;;;;;19.60;88.70;;;;;;5024863;28;19932;-69
2023/09/18 05:30:46;;;;;;;;;;;19.60;88.80;;;;;;5022884;28;19937;-69
2023/09/18 05:33:20;;;;;;;;;;;19.60;88.80;;;;;;5025860;28;19933;-69
2023/09/18 05:35:53;;;;;;;;;;;19.60;88.80;;;;;;5026290;28;19925;-69
2023/09/18 05:38:26;;;;;;;;;;;19.60;88.90;;;;;;5024406;28;19999;-70
2023/09/18 05:40:59;;;;;;;;;;;19.60;88.80;;;;;;5024161;28;19925;-69
2023/09/18 05:43:32;;;;;;;;;;;19.60;88.90;;;;;;5024158;28;19932;-69
2023/09/18 05:46:00;;;;;;;;;;;19.60;88.80;;;;;;5024874;28;20052;-69
2023/09/18 05:48:33;;;;;;;;;;;19.60;88.60;;;;;;5023889;28;19933;-69
2023/09/18 05:51:13;;;;;;;;;;;19.60;88.60;;;;;;5025222;28;20008;-70
2023/09/18 05:53:46;;;;;;;;;;;19.60;88.70;;;;;;5023893;28;19929;-69
2023/09/18 05:56:19;;;;;;;;;;;19.60;88.70;;;;;;5023589;28;20303;-69
2023/09/18 05:58:52;;;;;;;;;;;19.60;88.90;;;;;;5024987;28;19929;-70
2023/09/18 06:01:27;;;;;;;;;;;19.60;88.90;;;;;;5024158;28;20034;-69
2023/09/18 06:04:03;;;;;;;;;;;19.60;88.90;;;;;;5024314;28;19948;-69
2023/09/18 06:06:36;;;;;;;;;;;19.60;88.80;;;;;;5023373;28;19933;-70
2023/09/18 06:09:10;;;;;;;;;;;19.70;88.80;;;;;;5024086;28;19929;-69
2023/09/18 06:11:42;;;;;;;;;;;19.60;88.70;;;;;;5024951;28;19925;-69
2023/09/18 06:14:15;;;;;;;;;;;19.70;88.90;;;;;;5023338;28;19929;-69
2023/09/18 06:16:43;;;;;;;;;;;19.70;88.60;;;;;;5023640;28;19925;-69
2023/09/18 06:19:17;;;;;;;;;;;19.70;88.60;;;;;;5023254;28;20011;-68
2023/09/18 06:21:50;;;;;;;;;;;19.80;88.50;;;;;;5022301;28;19929;-68
2023/09/18 06:24:23;;;;;;;;;;;19.80;88.30;;;;;;5023124;28;19949;-69
2023/09/18 06:26:56;;;;;;;;;;;19.90;88.50;;;;;;5023977;28;19926;-70
2023/09/18 06:29:29;;;;;;;;;;;19.90;88.30;;;;;;5022928;28;19925;-70
2023/09/18 06:32:04;;;;;;;;;;;19.90;88.00;;;;;;5023859;28;19933;-68
2023/09/18 06:34:38;;;;;;;;;;;19.90;88.40;;;;;;5022820;28;19929;-68
2023/09/18 06:37:12;;;;;;;;;;;19.90;88.60;;;;;;5023293;28;19925;-68
2023/09/18 06:39:45;;;;;;;;;;;19.90;88.30;;;;;;5023610;28;20071;-68
2023/09/18 06:42:19;;;;;;;;;;;20.00;87.80;;;;;;5022031;28;19926;-68
2023/09/18 06:44:57;;;;;;;;;;;19.90;88.30;;;;;;5021270;28;20398;-68
2023/09/18 06:47:32;;;;;;;;;;;19.90;88.50;;;;;;5022792;28;20403;-67
2023/09/18 06:50:06;;;;;;;;;;;20.00;88.70;;;;;;5021515;28;19932;-69
2023/09/18 06:52:39;;;;;;;;;;;20.00;88.80;;;;;;5024253;28;19932;-68
2023/09/18 06:55:12;;;;;;;;;;;20.00;88.70;;;;;;5022691;28;19932;-69
2023/09/18 06:57:47;;;;;;;;;;;20.10;88.00;;;;;;5021839;28;20325;-68
2023/09/18 07:00:21;;;;;;;;;;;20.10;87.20;;;;;;5022273;28;20012;-68
2023/09/18 07:02:55;;;;;;;;;;;20.20;88.30;;;;;;5027884;28;19936;-68
2023/09/18 07:05:28;;;;;;;;;;;20.30;88.20;;;;;;5021896;28;19963;-68
2023/09/18 07:08:02;;;;;;;;;;;20.40;88.00;;;;;;5023049;28;19929;-68
2023/09/18 07:10:36;;;;;;;;;;;20.50;88.00;;;;;;5023110;28;19935;-68
2023/09/18 07:13:08;;;;;;;;;;;20.60;87.50;;;;;;5022963;28;19979;-68
2023/09/18 07:15:41;;;;;;;;;;;20.60;88.00;;;;;;5023497;28;19984;-68
2023/09/18 07:18:16;;;;;;;;;;;20.70;87.70;;;;;;5020462;28;19936;-68
2023/09/18 07:20:49;;;;;;;;;;;20.80;87.60;;;;;;5019905;28;20020;-69
2023/09/18 07:23:22;;;;;;;;;;;20.90;87.80;;;;;;5022136;28;19971;-68
2023/09/18 07:25:57;;;;;;;;;;;20.90;87.70;;;;;;5022442;28;19975;-68
2023/09/18 07:28:30;;;;;;;;;;;21.00;87.60;;;;;;5022259;28;19936;-68
2023/09/18 07:30:57;;;;;;;;;;;21.00;87.80;;;;;;5022758;28;19929;-69
2023/09/18 07:33:32;;;;;;;;;;;21.10;87.70;;;;;;5021901;28;20284;-69
2023/09/18 07:36:06;;;;;;;;;;;21.10;87.50;;;;;;5021999;28;20373;-69
2023/09/18 07:38:38;;;;;;;;;;;21.10;87.70;;;;;;5020824;28;20280;-69
2023/09/18 07:41:11;;;;;;;;;;;21.10;87.20;;;;;;5021587;28;20426;-68
2023/09/18 07:43:44;;;;;;;;;;;21.10;87.50;;;;;;5021989;28;20022;-74
2023/09/18 07:46:17;;;;;;;;;;;21.10;86.80;;;;;;5021612;28;19929;-72
2023/09/18 07:48:52;;;;;;;;;;;21.10;87.30;;;;;;5023434;28;19960;-73
2023/09/18 07:51:25;;;;;;;;;;;21.00;87.10;;;;;;5022402;28;20688;-73
2023/09/18 07:53:59;;;;;;;;;;;21.10;87.10;;;;;;5024640;28;19929;-73
2023/09/18 07:56:34;;;;;;;;;;;21.00;86.80;;;;;;5027671;28;20016;-73
2023/09/18 07:59:10;;;;;;;;;;;21.10;87.10;;;;;;5022888;28;20678;-72
2023/09/18 08:01:43;;;;;;;;;;;21.10;87.20;;;;;;5023867;28;19925;-68
2023/09/18 08:04:18;;;;;;;;;;;21.10;87.20;;;;;;5022625;28;19925;-69
2023/09/18 08:06:51;;;;;;;;;;;21.10;87.00;;;;;;5023027;28;19979;-69
2023/09/18 08:09:24;;;;;;;;;;;21.10;86.90;;;;;;5021122;28;19933;-68
2023/09/18 08:11:58;;;;;;;;;;;21.20;87.10;;;;;;5023015;28;19930;-69
2023/09/18 08:14:30;;;;;;;;;;;21.20;87.10;;;;;;5021167;28;19926;-69
2023/09/18 08:17:04;;;;;;;;;;;21.30;87.00;;;;;;5023103;28;19925;-68
2023/09/18 08:19:39;;;;;;;;;;;21.30;87.00;;;;;;5021209;28;20020;-68
2023/09/18 08:22:15;;;;;;;;;;;21.40;86.80;;;;;;5021004;28;19932;-68
2023/09/18 08:24:50;;;;;;;;;;;21.40;86.80;;;;;;5023478;28;19925;-69
2023/09/18 08:27:25;;;;;;;;;;;21.50;86.60;;;;;;5019518;28;19945;-68
2023/09/18 08:29:58;;;;;;;;;;;21.60;86.50;;;;;;5022796;28;19975;-68
2023/09/18 08:32:33;;;;;;;;;;;21.70;86.20;;;;;;5020911;28;20297;-69
2023/09/18 08:35:09;;;;;;;;;;;21.80;85.50;;;;;;5021136;28;20385;-68
2023/09/18 08:37:42;;;;;;;;;;;21.90;85.20;;;;;;5021558;28;20017;-68
2023/09/18 08:40:16;;;;;;;;;;;21.90;84.90;;;;;;5025048;28;19933;-67
2023/09/18 08:42:52;;;;;;;;;;;21.90;84.50;;;;;;5024900;28;19932;-68
2023/09/18 08:45:28;;;;;;;;;;;22.00;84.00;;;;;;5025957;28;19925;-68
2023/09/18 08:48:02;;;;;;;;;;;22.10;83.60;;;;;;5024159;28;20006;-68
2023/09/18 08:50:36;;;;;;;;;;;22.10;83.50;;;;;;5024820;28;19925;-68
2023/09/18 08:53:09;;;;;;;;;;;22.10;83.50;;;;;;5025633;28;19925;-68
2023/09/18 08:55:43;;;;;;;;;;;22.10;83.30;;;;;;5025565;28;19995;-68
2023/09/18 08:58:19;;;;;;;;;;;22.10;83.00;;;;;;5024320;28;19978;-68
2023/09/18 09:00:53;;;;;;;;;;;22.10;82.60;;;;;;5028347;28;19925;-69
2023/09/18 09:03:27;;;;;;;;;;;22.10;81.90;;;;;;5024487;28;19929;-69
2023/09/18 09:06:02;;;;;;;;;;;22.10;81.60;;;;;;5025591;28;20017;-69
2023/09/18 09:08:36;;;;;;;;;;;22.20;81.30;;;;;;5024533;28;19972;-69
2023/09/18 09:11:09;;;;;;;;;;;22.20;80.80;;;;;;5025165;28;20474;-69
2023/09/18 09:13:41;;;;;;;;;;;22.30;80.40;;;;;;5024568;28;19936;-69
2023/09/18 09:16:16;;;;;;;;;;;22.30;80.10;;;;;;5023049;28;20019;-69
2023/09/18 09:18:50;;;;;;;;;;;22.30;79.80;;;;;;5024543;28;19979;-68
2023/09/18 09:21:38;;;;;;;;;;;22.30;79.70;;;;;;5024686;28;20289;-68
2023/09/18 09:24:13;;;;;;;;;;;22.30;79.40;;;;;;5024399;28;19929;-69
2023/09/18 09:26:58;;;;;;;;;;;22.30;79.10;;;;;;5025193;28;19925;-69
2023/09/18 09:29:31;;;;;;;;;;;22.30;79.00;;;;;;5024438;28;19979;-69
2023/09/18 09:32:15;;;;;;;;;;;22.40;78.70;;;;;;5023543;28;20412;-69
2023/09/18 09:34:49;;;;;;;;;;;22.40;78.40;;;;;;5022563;28;19996;-69
2023/09/18 09:37:30;;;;;;;;;;;22.60;78.10;;;;;;5024080;28;19932;-69
2023/09/18 09:40:08;;;;;;;;;;;22.60;78.10;;;;;;5025197;28;19925;-69
2023/09/18 09:42:41;;;;;;;;;;;22.60;78.00;;;;;;5020475;28;19925;-69
2023/09/18 09:45:15;;;;;;;;;;;22.60;77.80;;;;;;5024211;28;19925;-70
2023/09/18 09:47:49;;;;;;;;;;;22.60;78.00;;;;;;5024388;28;19929;-69
2023/09/18 09:50:25;;;;;;;;;;;22.60;78.20;;;;;;5025570;28;19963;-68
2023/09/18 09:53:00;;;;;;;;;;;22.60;77.90;;;;;;5023859;28;19931;-67
2023/09/18 09:55:34;;;;;;;;;;;22.60;77.80;;;;;;5023846;28;19933;-69
2023/09/18 09:58:10;;;;;;;;;;;22.50;77.80;;;;;;5023304;28;19984;-69
2023/09/18 10:00:45;;;;;;;;;;;22.50;77.60;;;;;;5023836;28;19935;-69
2023/09/18 10:03:20;;;;;;;;;;;22.50;77.30;;;;;;5023316;28;20023;-70
2023/09/18 10:05:54;;;;;;;;;;;22.40;77.60;;;;;;5024907;28;19925;-69
2023/09/18 10:08:30;;;;;;;;;;;22.40;77.50;;;;;;5022427;28;20351;-69
2023/09/18 10:11:07;;;;;;;;;;;22.40;77.60;;;;;;5024525;28;19929;-70
2023/09/18 10:13:42;;;;;;;;;;;22.40;77.40;;;;;;5024731;28;19925;-69
2023/09/18 10:16:20;;;;;;;;;;;22.50;77.50;;;;;;5023585;28;19929;-69
2023/09/18 10:18:57;;;;;;;;;;;22.50;77.60;;;;;;5024127;28;19930;-70
2023/09/18 10:21:34;;;;;;;;;;;22.40;77.40;;;;;;5023469;28;19940;-69
2023/09/18 10:24:14;;;;;;;;;;;22.40;77.40;;;;;;5020435;28;20530;-70
2023/09/18 10:26:51;;;;;;;;;;;22.40;77.50;;;;;;5025376;28;19925;-70
2023/09/18 10:29:25;;;;;;;;;;;22.30;77.40;;;;;;5026679;28;19929;-70
2023/09/18 10:31:53;;;;;;;;;;;22.30;77.20;;;;;;5028948;28;19936;-71
2023/09/18 10:34:26;;;;;;;;;;;22.30;77.20;;;;;;5022554;28;20365;-73
2023/09/18 10:37:07;;;;;;;;;;;22.30;77.30;;;;;;5026827;28;20051;-74
2023/09/18 10:39:43;;;;;;;;;;;22.20;77.50;;;;;;5022590;28;20396;-73
2023/09/18 10:42:17;;;;;;;;;;;22.20;77.80;;;;;;5021080;28;19925;-73
2023/09/18 10:44:51;;;;;;;;;;;22.10;77.70;;;;;;5025823;28;19933;-72
2023/09/18 10:47:25;;;;;;;;;;;22.10;77.50;;;;;;5019577;28;19935;-73
2023/09/18 10:49:58;;;;;;;;;;;22.10;77.70;;;;;;5023834;28;20146;-73
2023/09/18 10:52:31;;;;;;;;;;;22.00;78.20;;;;;;5022000;28;19929;-74
2023/09/18 10:55:07;;;;;;;;;;;22.00;78.20;;;;;;5022963;28;19956;-74
2023/09/18 10:57:50;;;;;;;;;;;22.00;78.30;;;;;;5022582;28;20299;-74
2023/09/18 11:00:25;;;;;;;;;;;22.00;78.40;;;;;;5022721;28;19933;-73
2023/09/18 11:03:12;;;;;;;;;;;22.10;78.10;;;;;;5020626;28;19936;-72
2023/09/18 11:05:45;;;;;;;;;;;22.10;77.70;;;;;;5022579;28;19925;-73
2023/09/18 11:08:25;;;;;;;;;;;22.20;77.70;;;;;;5022739;28;19940;-74
2023/09/18 11:11:04;;;;;;;;;;;22.10;77.60;;;;;;5023508;28;19933;-73
2023/09/18 11:13:38;;;;;;;;;;;22.20;77.40;;;;;;5021191;28;19940;-73
2023/09/18 11:16:19;;;;;;;;;;;22.20;77.40;;;;;;5022271;28;19929;-73
2023/09/18 11:18:53;;;;;;;;;;;22.10;77.50;;;;;;5022379;28;20384;-73
2023/09/18 11:21:27;;;;;;;;;;;22.20;77.50;;;;;;5021216;28;19932;-73
2023/09/18 11:24:03;;;;;;;;;;;22.20;77.50;;;;;;5017672;28;20023;-73
2023/09/18 11:26:37;;;;;;;;;;;22.20;77.40;;;;;;5023891;28;20020;-74
2023/09/18 11:29:12;;;;;;;;;;;22.10;77.30;;;;;;5022423;28;20388;-74
2023/09/18 11:31:45;;;;;;;;;;;22.20;77.40;;;;;;5023242;28;20340;-73
2023/09/18 11:34:22;;;;;;;;;;;22.20;77.20;;;;;;5022066;28;19936;-73
2023/09/18 11:36:56;;;;;;;;;;;22.20;77.10;;;;;;5023180;28;20303;-72
2023/09/18 11:39:37;;;;;;;;;;;22.30;77.00;;;;;;5021738;28;20423;-73
2023/09/18 11:42:12;;;;;;;;;;;22.40;76.90;;;;;;5021859;28;20028;-70
2023/09/18 11:44:46;;;;;;;;;;;22.50;76.70;;;;;;5022533;28;19975;-70
2023/09/18 11:47:21;;;;;;;;;;;22.60;76.60;;;;;;5023133;28;19936;-70
2023/09/18 11:49:56;;;;;;;;;;;22.60;76.60;;;;;;5022366;28;20027;-69
2023/09/18 11:52:31;;;;;;;;;;;22.60;76.30;;;;;;5020298;28;19933;-70
2023/09/18 11:55:06;;;;;;;;;;;22.60;76.10;;;;;;5022189;28;19929;-70
2023/09/18 11:57:43;;;;;;;;;;;22.60;76.30;;;;;;5022354;28;19925;-70
2023/09/18 12:00:23;;;;;;;;;;;22.60;76.20;;;;;;5023317;28;19933;-70
2023/09/18 12:02:59;;;;;;;;;;;22.60;76.30;;;;;;5022771;28;19930;-70
2023/09/18 12:05:35;;;;;;;;;;;22.60;76.50;;;;;;5022418;28;19934;-70
2023/09/18 12:08:08;;;;;;;;;;;22.60;76.30;;;;;;5022261;28;19929;-69
2023/09/18 12:10:44;;;;;;;;;;;22.70;76.40;;;;;;5023166;28;19929;-70
2023/09/18 12:13:18;;;;;;;;;;;22.70;76.30;;;;;;5023726;28;19929;-70
2023/09/18 12:15:56;;;;;;;;;;;22.70;76.20;;;;;;5027131;28;19929;-69
2023/09/18 12:18:30;;;;;;;;;;;22.70;76.30;;;;;;5026253;28;19971;-70
2023/09/18 12:21:04;;;;;;;;;;;22.70;76.30;;;;;;5025097;28;19933;-70
2023/09/18 12:23:38;;;;;;;;;;;22.70;76.10;;;;;;5025713;28;19929;-70
2023/09/18 12:26:13;;;;;;;;;;;22.70;76.20;;;;;;5025544;28;19926;-70
2023/09/18 12:28:47;;;;;;;;;;;22.60;76.30;;;;;;5024707;28;20674;-69
2023/09/18 12:31:21;;;;;;;;;;;22.60;76.50;;;;;;5024973;28;19965;-70
2023/09/18 12:33:54;;;;;;;;;;;22.60;76.30;;;;;;5027220;28;19926;-69
2023/09/18 12:36:29;;;;;;;;;;;22.60;76.00;;;;;;5025152;28;20348;-70
2023/09/18 12:39:03;;;;;;;;;;;22.60;76.00;;;;;;5025183;28;19983;-70
2023/09/18 12:41:38;;;;;;;;;;;22.80;75.80;;;;;;5024108;28;20034;-70
2023/09/18 12:44:14;;;;;;;;;;;22.90;75.70;;;;;;5025353;28;20370;-69
2023/09/18 12:46:50;;;;;;;;;;;22.90;75.70;;;;;;5025730;28;19925;-70
2023/09/18 12:49:25;;;;;;;;;;;22.80;75.80;;;;;;5025918;28;19929;-70
2023/09/18 12:51:58;;;;;;;;;;;22.80;76.00;;;;;;5025837;28;19925;-68
2023/09/18 12:54:37;;;;;;;;;;;22.70;76.20;;;;;;5026417;28;20352;-73
2023/09/18 12:57:11;;;;;;;;;;;22.70;76.20;;;;;;5024574;28;19979;-72
2023/09/18 12:59:46;;;;;;;;;;;22.70;76.20;;;;;;5025016;28;19968;-72
2023/09/18 13:02:20;;;;;;;;;;;22.80;76.00;;;;;;5025859;28;20419;-71
2023/09/18 13:04:53;;;;;;;;;;;22.80;76.00;;;;;;5029395;28;19930;-72
2023/09/18 13:07:27;;;;;;;;;;;22.80;76.10;;;;;;5029108;28;19964;-72
2023/09/18 13:10:00;;;;;;;;;;;22.70;76.30;;;;;;5025098;28;19940;-72
2023/09/18 13:12:40;;;;;;;;;;;22.70;76.50;;;;;;5025404;28;19987;-72
2023/09/18 13:15:24;;;;;;;;;;;22.60;76.40;;;;;;5024818;28;19939;-71
2023/09/18 13:17:59;;;;;;;;;;;22.60;76.60;;;;;;5026020;28;20004;-74
2023/09/18 13:20:26;;;;;;;;;;;22.60;76.60;;;;;;5024891;28;19925;-72
2023/09/18 13:23:03;;;;;;;;;;;22.60;76.50;;;;;;5026033;28;19929;-73
2023/09/18 13:25:37;;;;;;;;;;;22.70;76.40;;;;;;5025146;28;20012;-73
2023/09/18 13:28:11;;;;;;;;;;;22.70;76.40;;;;;;5026077;28;19929;-72
2023/09/18 13:30:46;;;;;;;;;;;22.70;76.30;;;;;;5025077;28;19936;-72
2023/09/18 13:33:22;;;;;;;;;;;22.60;76.50;;;;;;5023459;28;19948;-72
2023/09/18 13:35:55;;;;;;;;;;;22.70;76.40;;;;;;5010667;28;19929;-72
2023/09/18 13:38:29;;;;;;;;;;;22.80;76.40;;;;;;5026313;28;19935;-74
2023/09/18 13:41:04;;;;;;;;;;;22.80;76.30;;;;;;5023463;28;20364;-73
2023/09/18 13:43:37;;;;;;;;;;;22.80;76.20;;;;;;5016380;28;19925;-72
2023/09/18 13:46:14;;;;;;;;;;;22.80;76.30;;;;;;5020978;28;19932;-71
2023/09/18 13:48:47;;;;;;;;;;;22.80;76.20;;;;;;5023655;28;19957;-72
2023/09/18 13:51:21;;;;;;;;;;;22.80;76.20;;;;;;5023028;28;19935;-71
2023/09/18 13:53:56;;;;;;;;;;;22.80;76.10;;;;;;5021330;28;20008;-71
2023/09/18 13:56:29;;;;;;;;;;;22.90;76.20;;;;;;5023633;28;20019;-72
2023/09/18 13:59:02;;;;;;;;;;;22.90;76.20;;;;;;5024033;28;20016;-72
2023/09/18 14:01:36;;;;;;;;;;;23.00;76.20;;;;;;5023302;28;19940;-71
2023/09/18 14:04:10;;;;;;;;;;;23.10;76.00;;;;;;5022701;28;19929;-69
2023/09/18 14:06:44;;;;;;;;;;;23.30;75.80;;;;;;5024363;28;19980;-69
2023/09/18 14:09:17;;;;;;;;;;;23.30;75.60;;;;;;5021163;28;19925;-69
2023/09/18 14:11:44;;;;;;;;;;;23.30;75.30;;;;;;5023561;28;20412;-68
2023/09/18 14:14:18;;;;;;;;;;;23.30;75.40;;;;;;5023334;28;20366;-70
2023/09/18 14:16:53;;;;;;;;;;;23.40;75.40;;;;;;5024122;28;20446;-69
2023/09/18 14:19:26;;;;;;;;;;;23.40;75.30;;;;;;5022255;28;20372;-69
2023/09/18 14:22:03;;;;;;;;;;;23.40;75.10;;;;;;5023067;28;20402;-69
2023/09/18 14:24:36;;;;;;;;;;;23.50;74.90;;;;;;5022200;28;20423;-70
2023/09/18 14:27:09;;;;;;;;;;;23.50;74.60;;;;;;5022540;28;19937;-70
2023/09/18 14:29:42;;;;;;;;;;;23.40;74.70;;;;;;5022077;28;19932;-69
2023/09/18 14:32:16;;;;;;;;;;;23.50;74.80;;;;;;5022976;28;19929;-70
2023/09/18 14:34:50;;;;;;;;;;;23.50;74.90;;;;;;5020845;28;19936;-70
2023/09/18 14:37:24;;;;;;;;;;;23.40;74.70;;;;;;5023019;28;20292;-69
2023/09/18 14:39:50;;;;;;;;;;;23.40;74.80;;;;;;5023814;28;20308;-69
2023/09/18 14:42:30;;;;;;;;;;;23.40;74.90;;;;;;5024687;28;19940;-69
2023/09/18 14:45:04;;;;;;;;;;;23.40;74.80;;;;;;5024561;28;19930;-68
2023/09/18 14:47:39;;;;;;;;;;;23.40;74.90;;;;;;5017322;28;19933;-68
2023/09/18 14:50:13;;;;;;;;;;;23.30;75.00;;;;;;5014490;28;19940;-68
2023/09/18 14:52:46;;;;;;;;;;;23.30;75.00;;;;;;5016921;28;19933;-70
2023/09/18 14:55:20;;;;;;;;;;;23.20;74.90;;;;;;5010776;28;20398;-69